Time;durP1;ratioP1;P1;durP2;ratioP2;P2;SDS_P1;SDS_P2;PMS_P1;PMS_P2;Temp;Humidity;BMP_temperature;BMP_pressure;BME280_temperature;BME280_humidity;BME280_pressure;Samples;Min_cycle;Max_cycle;Signal;HPM_P1;HPM_P2
2021/10/23 00:02:25;;;;;;;94.72;56.08;;;;;;;10.76;100.00;100219.84;4934413;29;20096;-91
2021/10/23 00:04:52;;;;;;;91.13;51.72;;;;;;;10.71;100.00;100221.84;4901653;29;20044;-89
2021/10/23 00:07:18;;;;;;;94.25;55.13;;;;;;;10.76;100.00;100212.03;4901819;29;20059;-89
2021/10/23 00:09:45;;;;;;;88.35;52.67;;;;;;;10.62;100.00;100214.47;4900381;29;20036;-89
2021/10/23 00:12:12;;;;;;;94.40;53.30;;;;;;;10.51;100.00;100216.78;4899036;29;20492;-89
2021/10/23 00:14:39;;;;;;;92.95;51.70;;;;;;;10.53;100.00;100217.53;4902226;29;20056;-91
2021/10/23 00:17:11;;;;;;;91.78;54.55;;;;;;;10.46;100.00;100215.25;4905065;29;20040;-92
2021/10/23 00:20:38;;;;;;;;;;;;;;;;;;;;;
2021/10/23 00:24:08;;;;;;;82.13;49.55;;;;;;;10.35;100.00;100214.94;4901368;29;20040;-92
2021/10/23 00:39:43;;;;;;;82.38;47.88;;;;;;;10.24;100.00;100235.47;4826778;29;20075;-92
2021/10/23 00:43:00;;;;;;;93.78;49.28;;;;;;;10.26;100.00;100232.78;4827535;29;20054;-92
2021/10/23 00:46:02;;;;;;;89.15;48.83;;;;;;;10.29;100.00;100235.25;4835926;29;20506;-92
2021/10/23 00:48:29;;;;;;;89.13;50.47;;;;;;;10.32;100.00;100238.53;4839490;29;20480;-92
2021/10/23 00:50:57;;;;;;;87.45;50.80;;;;;;;10.31;100.00;100242.06;4825361;29;20114;-91
2021/10/23 00:53:27;;;;;;;80.55;47.75;;;;;;;10.35;100.00;100237.53;4824915;29;20103;-92
2021/10/23 00:55:58;;;;;;;80.80;44.22;;;;;;;10.36;100.00;100237.47;4824780;29;20077;-92
2021/10/23 00:58:55;;;;;;;96.18;47.15;;;;;;;10.33;100.00;100249.78;4823260;29;20154;-92
2021/10/23 01:01:28;;;;;;;72.85;42.92;;;;;;;10.22;100.00;100252.88;4833893;29;20101;-92
2021/10/23 01:04:01;;;;;;;77.50;43.53;;;;;;;10.12;100.00;100238.59;4829103;29;20502;-91
2021/10/23 01:07:00;;;;;;;70.88;40.60;;;;;;;10.21;100.00;100256.41;4828716;29;20061;-93
2021/10/23 01:09:27;;;;;;;72.03;41.70;;;;;;;10.27;100.00;100250.09;4897014;29;20040;-90
2021/10/23 01:11:56;;;;;;;78.72;43.75;;;;;;;10.29;100.00;100245.66;4902088;29;20052;-90
2021/10/23 01:14:25;;;;;;;71.47;40.63;;;;;;;10.22;100.00;100237.25;4908683;28;20068;-91
2021/10/23 01:16:55;;;;;;;90.53;49.13;;;;;;;10.28;100.00;100247.44;4899047;29;20395;-89
2021/10/23 01:19:22;;;;;;;79.97;48.13;;;;;;;10.29;100.00;100253.47;4896945;29;20058;-88
2021/10/23 01:21:50;;;;;;;77.28;43.45;;;;;;;10.32;100.00;100254.16;4896804;29;20056;-88
2021/10/23 01:24:18;;;;;;;85.25;49.90;;;;;;;10.49;100.00;100263.75;4898051;29;20096;-88
2021/10/23 01:26:45;;;;;;;91.28;47.50;;;;;;;10.45;100.00;100254.41;4897427;29;20045;-91
2021/10/23 01:29:14;;;;;;;85.65;48.00;;;;;;;10.46;100.00;100249.13;4897586;29;20055;-91
2021/10/23 01:31:42;;;;;;;87.28;47.47;;;;;;;10.38;100.00;100258.22;4897799;29;20519;-91
2021/10/23 01:34:14;;;;;;;77.90;45.10;;;;;;;10.33;100.00;100255.84;4897663;29;20040;-91
2021/10/23 01:36:48;;;;;;;98.28;49.33;;;;;;;10.38;100.00;100256.47;4897824;29;20109;-91
2021/10/23 01:39:15;;;;;;;80.90;48.63;;;;;;;10.34;100.00;100248.88;4897842;29;20048;-89
2021/10/23 01:41:42;;;;;;;76.30;45.53;;;;;;;10.23;100.00;100249.38;4896406;29;20076;-92
2021/10/23 01:44:13;;;;;;;73.32;40.05;;;;;;;10.19;100.00;100248.69;4898297;29;20049;-95
2021/10/23 01:46:40;;;;;;;69.43;40.80;;;;;;;10.25;100.00;100244.97;4897010;29;20103;-93
2021/10/23 01:49:07;;;;;;;70.05;41.00;;;;;;;10.33;100.00;100255.84;4897989;29;20088;-90
2021/10/23 01:51:36;;;;;;;66.93;41.42;;;;;;;10.22;100.00;100247.66;4902866;29;20048;-94
2021/10/23 01:54:05;;;;;;;65.72;40.33;;;;;;;10.26;100.00;100251.84;4908872;29;20041;-94
2021/10/23 01:56:33;;;;;;;66.22;39.70;;;;;;;10.20;100.00;100244.31;4907330;29;20056;-96
2021/10/23 01:59:01;;;;;;;68.65;39.45;;;;;;;10.16;100.00;100253.19;4899020;29;20045;-94
2021/10/23 02:01:27;;;;;;;70.38;39.63;;;;;;;10.15;100.00;100246.28;4897907;29;20372;-94
2021/10/23 02:03:54;;;;;;;69.65;39.33;;;;;;;10.23;100.00;100255.47;4898513;29;20067;-94
2021/10/23 02:06:24;;;;;;;74.10;43.53;;;;;;;10.40;100.00;100257.25;4898184;29;20096;-94
2021/10/23 02:08:50;;;;;;;85.85;49.10;;;;;;;10.61;100.00;100259.72;4898279;29;20052;-90
2021/10/23 02:11:18;;;;;;;85.55;50.92;;;;;;;10.65;100.00;100263.84;4897752;29;20090;-90
2021/10/23 02:13:46;;;;;;;89.97;48.13;;;;;;;10.62;100.00;100256.19;4898240;29;20049;-90
2021/10/23 02:16:13;;;;;;;68.32;42.60;;;;;;;10.69;100.00;100257.56;4898312;29;20476;-90
2021/10/23 02:18:40;;;;;;;84.45;43.00;;;;;;;10.59;100.00;100261.53;4897454;29;20049;-90
2021/10/23 02:21:08;;;;;;;68.70;42.83;;;;;;;10.66;100.00;100258.56;4898703;29;20456;-90
2021/10/23 02:23:35;;;;;;;80.45;44.45;;;;;;;10.82;100.00;100263.84;4897921;29;20052;-90
2021/10/23 02:26:02;;;;;;;81.43;47.67;;;;;;;10.84;100.00;100264.59;4897956;29;20052;-91
2021/10/23 02:28:29;;;;;;;91.28;49.65;;;;;;;10.84;100.00;100259.38;4897634;29;20077;-91
2021/10/23 02:30:56;;;;;;;81.65;48.85;;;;;;;10.87;100.00;100261.84;4898040;29;20048;-90
2021/10/23 02:33:23;;;;;;;86.47;49.03;;;;;;;10.95;100.00;100261.44;4897209;29;20069;-91
2021/10/23 02:35:52;;;;;;;89.28;51.65;;;;;;;11.04;100.00;100258.38;4896943;29;20112;-92
2021/10/23 02:38:19;;;;;;;88.20;51.47;;;;;;;11.02;100.00;100254.97;4896866;29;20057;-92
2021/10/23 02:40:46;;;;;;;96.32;56.65;;;;;;;11.05;100.00;100254.00;4896219;29;20048;-93
2021/10/23 02:43:13;;;;;;;93.00;52.85;;;;;;;11.06;100.00;100258.28;4897193;29;20054;-94
2021/10/23 02:45:44;;;;;;;94.03;56.50;;;;;;;11.13;100.00;100263.13;4896599;29;20164;-93
2021/10/23 02:48:11;;;;;;;87.55;53.72;;;;;;;11.20;100.00;100263.66;4895404;29;20096;-93
2021/10/23 02:50:38;;;;;;;89.85;53.90;;;;;;;11.30;100.00;100266.63;4897940;29;20040;-93
2021/10/23 02:53:05;;;;;;;88.03;55.00;;;;;;;11.31;100.00;100260.47;4897827;29;20082;-93
2021/10/23 02:55:31;;;;;;;96.55;56.60;;;;;;;11.32;100.00;100265.59;4899849;29;20101;-92
2021/10/23 02:57:58;;;;;;;90.30;55.53;;;;;;;11.26;100.00;100263.31;4908174;29;20392;-94
2021/10/23 03:00:25;;;;;;;95.32;53.55;;;;;;;11.23;100.00;100260.84;4903996;29;20032;-94
2021/10/23 03:02:52;;;;;;;96.47;54.17;;;;;;;11.00;100.00;100265.50;4903588;29;20055;-92
2021/10/23 03:05:21;;;;;;;91.93;53.53;;;;;;;11.15;100.00;100268.25;4937305;23;20055;-80
2021/10/23 03:07:48;;;;;;;99.13;56.95;;;;;;;11.23;100.00;100273.91;4937959;29;20043;-79
2021/10/23 03:10:15;;;;;;;99.13;55.28;;;;;;;11.32;100.00;100270.81;4938396;29;20079;-80
2021/10/23 03:12:42;;;;;;;106.00;60.35;;;;;;;11.20;100.00;100272.31;4938181;29;20106;-80
2021/10/23 03:15:09;;;;;;;95.95;57.55;;;;;;;11.36;100.00;100274.97;4938412;29;20048;-80
2021/10/23 03:17:36;;;;;;;101.82;56.65;;;;;;;11.46;100.00;100280.53;4937405;29;20060;-79
2021/10/23 03:20:04;;;;;;;102.25;59.42;;;;;;;11.50;100.00;100282.91;4938236;29;20044;-80
2021/10/23 03:22:31;;;;;;;93.60;57.20;;;;;;;11.51;100.00;100279.38;4937623;29;20040;-81
2021/10/23 03:24:58;;;;;;;94.60;56.28;;;;;;;11.52;100.00;100285.44;4938161;29;20044;-79
2021/10/23 03:27:25;;;;;;;99.75;57.10;;;;;;;11.53;100.00;100285.34;4937977;29;20455;-80
2021/10/23 03:29:53;;;;;;;100.95;55.85;;;;;;;11.55;100.00;100285.25;4937857;29;20107;-80
2021/10/23 03:32:20;;;;;;;99.43;55.17;;;;;;;11.66;100.00;100285.53;4938006;29;20435;-78
2021/10/23 03:34:51;;;;;;;100.07;55.28;;;;;;;11.74;100.00;100291.19;4937427;29;20043;-77
2021/10/23 03:37:18;;;;;;;90.82;54.25;;;;;;;11.84;100.00;100291.56;4937827;29;20495;-79
2021/10/23 03:39:45;;;;;;;96.40;55.00;;;;;;;11.73;100.00;100296.50;4937950;29;20039;-80
2021/10/23 03:42:12;;;;;;;93.80;53.85;;;;;;;11.73;100.00;100304.34;4938097;29;20044;-79
2021/10/23 03:44:39;;;;;;;91.43;52.97;;;;;;;11.75;100.00;100299.84;4937874;29;20048;-79
2021/10/23 03:47:06;;;;;;;94.60;55.30;;;;;;;11.87;100.00;100301.81;4920853;29;20044;-79
2021/10/23 03:49:33;;;;;;;84.90;51.30;;;;;;;11.97;100.00;100303.00;4937740;29;20047;-79
2021/10/23 03:51:59;;;;;;;91.60;53.72;;;;;;;12.01;100.00;100303.69;4938183;29;20078;-78
2021/10/23 03:54:27;;;;;;;97.90;54.20;;;;;;;11.98;100.00;100301.25;4937354;29;20055;-79
2021/10/23 03:56:54;;;;;;;93.97;55.33;;;;;;;11.93;100.00;100303.25;4937740;29;20095;-80
2021/10/23 03:59:20;;;;;;;102.03;59.03;;;;;;;11.98;100.00;100309.09;4937710;29;20051;-79
2021/10/23 04:01:48;;;;;;;111.38;59.42;;;;;;;11.91;100.00;100308.59;4937167;29;20044;-80
2021/10/23 04:04:15;;;;;;;106.68;59.78;;;;;;;12.11;100.00;100310.09;4937333;29;20099;-79
2021/10/23 04:06:41;;;;;;;100.05;58.45;;;;;;;12.27;100.00;100310.09;4937213;29;20603;-80
2021/10/23 04:09:08;;;;;;;108.40;58.50;;;;;;;12.12;100.00;100310.94;4936172;29;20036;-80
2021/10/23 04:11:35;;;;;;;99.10;60.00;;;;;;;12.08;100.00;100307.66;4936341;29;20447;-79
2021/10/23 04:14:05;;;;;;;103.72;60.65;;;;;;;12.18;100.00;100310.59;4937750;29;20047;-78
2021/10/23 04:16:32;;;;;;;97.47;58.70;;;;;;;12.27;100.00;100310.94;4937179;29;20063;-78
2021/10/23 04:18:59;;;;;;;105.80;60.35;;;;;;;12.28;100.00;100309.16;4937977;29;20100;-78
2021/10/23 04:21:26;;;;;;;105.55;56.53;;;;;;;12.33;100.00;100315.81;4937007;29;20051;-76
2021/10/23 04:23:53;;;;;;;99.57;56.50;;;;;;;12.33;100.00;100315.81;4937109;29;20055;-78
2021/10/23 04:26:20;;;;;;;102.82;57.33;;;;;;;12.29;100.00;100322.13;4937398;29;20039;-77
2021/10/23 04:28:46;;;;;;;104.78;57.70;;;;;;;12.16;100.00;100323.75;4936858;29;20106;-78
2021/10/23 04:31:14;;;;;;;71.80;43.88;;;;;;;11.88;100.00;100324.44;4937292;29;20048;-78
2021/10/23 04:33:41;;;;;;;49.40;35.42;;;;;;;11.54;100.00;100326.19;4936862;29;20043;-76
2021/10/23 04:36:08;;;;;;;52.35;30.88;;;;;;;11.53;100.00;100329.72;4932804;29;20048;-77
2021/10/23 04:38:35;;;;;;;48.10;30.48;;;;;;;11.79;100.00;100330.97;4937400;29;20103;-77
2021/10/23 04:41:03;;;;;;;48.22;30.20;;;;;;;11.93;100.00;100342.44;4936964;29;20056;-78
2021/10/23 04:43:30;;;;;;;50.72;29.15;;;;;;;11.59;100.00;100344.22;4936628;29;20040;-78
2021/10/23 04:45:58;;;;;;;47.10;28.23;;;;;;;11.55;100.00;100345.28;4935295;29;20047;-78
2021/10/23 04:48:24;;;;;;;50.97;31.42;;;;;;;11.62;100.00;100344.06;4936727;29;20046;-78
2021/10/23 04:50:51;;;;;;;47.08;30.70;;;;;;;11.64;100.00;100349.19;4936115;29;20444;-79
2021/10/23 04:53:18;;;;;;;43.67;29.45;;;;;;;11.79;100.00;100361.47;4936468;29;20036;-79
2021/10/23 04:55:45;;;;;;;43.95;26.92;;;;;;;11.92;100.00;100359.06;4936451;29;20078;-79
2021/10/23 04:58:12;;;;;;;52.25;30.52;;;;;;;11.98;100.00;100363.94;4923827;29;20055;-79
2021/10/23 05:00:39;;;;;;;44.28;29.70;;;;;;;11.99;100.00;100363.88;4923720;29;20083;-78
2021/10/23 05:03:06;;;;;;;48.17;28.83;;;;;;;11.93;100.00;100359.00;4936952;29;20043;-78
2021/10/23 05:05:33;;;;;;;48.85;30.15;;;;;;;11.86;100.00;100364.59;4935894;29;20492;-80
2021/10/23 05:08:00;;;;;;;52.47;31.67;;;;;;;11.96;100.00;100364.03;4936567;29;20115;-78
2021/10/23 05:10:27;;;;;;;46.10;29.58;;;;;;;11.98;100.00;100367.41;4936192;29;20435;-77
2021/10/23 05:12:53;;;;;;;47.08;29.35;;;;;;;11.95;100.00;100367.56;4936148;29;20392;-81
2021/10/23 05:15:20;;;;;;;50.65;29.77;;;;;;;12.06;100.00;100364.38;4935939;29;20107;-77
2021/10/23 05:17:47;;;;;;;43.90;28.35;;;;;;;12.10;100.00;100365.91;4932437;29;20044;-78
2021/10/23 05:20:14;;;;;;;52.45;29.25;;;;;;;12.16;100.00;100356.91;4936355;29;20044;-78
2021/10/23 05:22:41;;;;;;;57.92;35.22;;;;;;;12.22;100.00;100370.47;4935883;29;20047;-78
2021/10/23 05:25:08;;;;;;;59.78;36.75;;;;;;;12.32;100.00;100366.41;4934328;29;20070;-77
2021/10/23 05:27:35;;;;;;;71.20;43.28;;;;;;;12.27;100.00;100368.44;4933889;29;20054;-80
2021/10/23 05:30:04;;;;;;;70.10;41.83;;;;;;;12.41;100.00;100364.22;4934166;29;20043;-79
2021/10/23 05:32:31;;;;;;;68.75;41.38;;;;;;;12.32;100.00;100373.41;4934808;29;20067;-79
2021/10/23 05:34:59;;;;;;;69.35;41.88;;;;;;;12.28;100.00;100379.72;4936560;29;20052;-79
2021/10/23 05:37:25;;;;;;;64.72;41.47;;;;;;;12.25;100.00;100374.66;4935823;29;20035;-79
2021/10/23 05:39:52;;;;;;;77.28;45.88;;;;;;;12.37;100.00;100384.47;4936542;29;20108;-79
2021/10/23 05:42:19;;;;;;;67.57;42.75;;;;;;;12.41;100.00;100388.59;4934000;29;20095;-78
2021/10/23 05:44:46;;;;;;;73.63;42.28;;;;;;;12.56;100.00;100390.34;4933954;29;20126;-78
2021/10/23 05:47:12;;;;;;;77.60;44.28;;;;;;;12.62;100.00;100390.94;4935976;29;20102;-80
2021/10/23 05:49:40;;;;;;;76.43;46.72;;;;;;;12.70;100.00;100397.44;4935936;29;20043;-81
2021/10/23 05:52:06;;;;;;;84.82;44.40;;;;;;;12.76;100.00;100393.63;4935887;29;20547;-80
2021/10/23 05:54:37;;;;;;;78.53;43.85;;;;;;;12.76;100.00;100399.69;4932124;29;20376;-80
2021/10/23 05:57:10;;;;;;;85.93;47.15;;;;;;;12.80;100.00;100403.00;4930785;29;20098;-81
2021/10/23 05:59:41;;;;;;;76.47;45.28;;;;;;;12.73;100.00;100406.84;4930042;29;20044;-80
2021/10/23 06:04:53;;;;;;;86.00;47.00;;;;;;;12.87;100.00;100411.31;4928746;29;20059;-79
2021/10/23 06:07:21;;;;;;;79.53;43.80;;;;;;;12.84;100.00;100412.34;4925985;29;20074;-79
2021/10/23 06:09:49;;;;;;;77.95;44.83;;;;;;;12.82;100.00;100422.03;4931987;29;20055;-80
2021/10/23 06:12:16;;;;;;;83.72;46.55;;;;;;;12.91;100.00;100420.69;4928288;29;20048;-79
2021/10/23 06:14:43;;;;;;;78.10;45.20;;;;;;;12.95;100.00;100430.06;4923592;29;20428;-78
2021/10/23 06:17:11;;;;;;;76.32;43.58;;;;;;;13.01;100.00;100433.16;4927645;29;20557;-79
2021/10/23 06:19:39;;;;;;;81.20;45.28;;;;;;;13.03;100.00;100436.53;4928314;29;20072;-77
2021/10/23 06:22:06;;;;;;;70.13;40.90;;;;;;;11.78;100.00;100453.78;4924798;29;20099;-80
2021/10/23 06:24:34;;;;;;;66.43;38.97;;;;;;;11.67;100.00;100450.91;4923451;29;20052;-77
2021/10/23 06:27:01;;;;;;;60.20;38.90;;;;;;;11.51;100.00;100469.09;4927939;29;20371;-78
2021/10/23 06:29:28;;;;;;;66.38;39.20;;;;;;;11.33;100.00;100457.78;4929949;29;20055;-77
2021/10/23 06:31:58;;;;;;;58.05;37.97;;;;;;;11.41;100.00;100468.72;4927767;29;20071;-78
2021/10/23 06:34:26;;;;;;;66.15;40.85;;;;;;;11.66;100.00;100467.47;4935416;29;20078;-78
2021/10/23 06:36:53;;;;;;;66.82;40.38;;;;;;;11.63;100.00;100467.63;4935234;29;20077;-78
2021/10/23 06:39:19;;;;;;;64.55;41.60;;;;;;;11.93;100.00;100476.53;4934295;29;20509;-80
2021/10/23 06:41:46;;;;;;;68.28;39.97;;;;;;;12.17;100.00;100473.56;4933091;29;20510;-79
2021/10/23 06:44:13;;;;;;;56.92;34.55;;;;;;;12.40;100.00;100478.41;4937158;29;20509;-78
2021/10/23 06:46:40;;;;;;;58.03;36.50;;;;;;;12.40;100.00;100482.78;4935892;29;20040;-78
2021/10/23 06:49:08;;;;;;;50.60;33.38;;;;;;;12.61;100.00;100483.41;4937636;29;20071;-78
2021/10/23 06:51:36;;;;;;;56.08;37.03;;;;;;;12.61;100.00;100483.41;4933938;29;20048;-80
2021/10/23 06:54:03;;;;;;;60.30;38.45;;;;;;;12.83;100.00;100486.50;4936615;29;20173;-81
2021/10/23 06:56:30;;;;;;;69.93;40.85;;;;;;;13.06;100.00;100487.88;4939212;29;20036;-79
2021/10/23 06:58:58;;;;;;;65.47;40.90;;;;;;;13.14;100.00;100490.03;4940345;29;20040;-79
2021/10/23 07:01:25;;;;;;;69.25;43.03;;;;;;;13.16;100.00;100493.44;4938442;29;20048;-80
2021/10/23 07:03:52;;;;;;;71.47;40.78;;;;;;;13.74;100.00;100497.91;4937777;29;20443;-80
2021/10/23 07:06:19;;;;;;;70.47;42.83;;;;;;;13.72;100.00;100497.19;4938028;29;20051;-79
2021/10/23 07:08:46;;;;;;;74.55;45.30;;;;;;;13.75;100.00;100504.88;4926754;29;20099;-77
2021/10/23 07:11:13;;;;;;;69.45;42.15;;;;;;;14.07;100.00;100508.19;4931413;29;20542;-79
2021/10/23 07:13:39;;;;;;;72.93;45.58;;;;;;;14.05;100.00;100516.13;4931795;29;20067;-84
2021/10/23 07:16:10;;;;;;;70.07;43.92;;;;;;;14.15;100.00;100517.25;4929906;29;20051;-82
2021/10/23 07:18:37;;;;;;;74.70;42.80;;;;;;;13.98;100.00;100529.69;4938293;29;20040;-78
2021/10/23 07:21:04;;;;;;;86.60;44.33;;;;;;;13.80;100.00;100534.25;4940478;29;20044;-84
2021/10/23 07:23:30;;;;;;;78.18;43.88;;;;;;;13.69;100.00;100526.16;4932998;29;20040;-78
2021/10/23 07:25:58;;;;;;;77.18;43.10;;;;;;;14.00;100.00;100540.94;4934879;29;20036;-76
2021/10/23 07:28:25;;;;;;;75.68;43.08;;;;;;;13.95;100.00;100538.56;4941552;29;20118;-78
2021/10/23 07:30:52;;;;;;;70.32;35.70;;;;;;;14.48;100.00;100549.41;4941612;29;20075;-80
2021/10/23 07:33:20;;;;;;;62.85;34.17;;;;;;;14.48;100.00;100538.94;4941158;29;20107;-80
2021/10/23 07:35:47;;;;;;;58.08;31.77;;;;;;;14.79;100.00;100551.00;4938863;29;20031;-78
2021/10/23 07:38:16;;;;;;;67.68;33.97;;;;;;;15.00;100.00;100557.50;4940414;29;20044;-79
2021/10/23 07:40:44;;;;;;;69.47;35.80;;;;;;;15.13;100.00;100561.06;4941116;29;20047;-78
2021/10/23 07:43:12;;;;;;;61.33;33.30;;;;;;;15.21;100.00;100568.44;4940734;29;20107;-78
2021/10/23 07:45:40;;;;;;;62.13;34.60;;;;;;;15.14;99.95;100570.63;4937415;29;20055;-76
2021/10/23 07:48:06;;;;;;;64.22;34.08;;;;;;;15.23;100.00;100576.19;4937663;29;20120;-76
2021/10/23 07:50:33;;;;;;;60.15;30.73;;;;;;;15.34;97.57;100587.72;4937323;29;20036;-79
2021/10/23 07:53:02;;;;;;;58.75;32.38;;;;;;;15.51;97.00;100584.00;4937409;29;20051;-80
2021/10/23 07:55:32;;;;;;;50.17;27.60;;;;;;;15.64;95.67;100590.16;4933460;29;20047;-77
2021/10/23 07:58:02;;;;;;;65.35;31.65;;;;;;;15.40;95.82;100597.00;4927468;29;20043;-79
2021/10/23 08:00:30;;;;;;;59.25;31.55;;;;;;;15.71;94.84;100595.84;4928810;29;20112;-77
2021/10/23 08:02:59;;;;;;;56.75;33.03;;;;;;;15.20;96.52;100601.72;4928808;29;20043;-78
2021/10/23 08:05:33;;;;;;;63.28;32.10;;;;;;;15.53;97.08;100607.53;4929730;29;20044;-81
2021/10/23 08:08:02;;;;;;;63.80;32.28;;;;;;;15.34;95.41;100603.50;4929341;29;20059;-82
2021/10/23 08:10:31;;;;;;;59.10;31.55;;;;;;;15.42;95.06;100610.88;4909858;29;20052;-80
2021/10/23 08:12:59;;;;;;;56.47;32.80;;;;;;;15.17;96.61;100609.78;4931793;29;20040;-79
2021/10/23 08:15:29;;;;;;;53.95;33.38;;;;;;;14.80;99.99;100610.41;4932093;29;20095;-81
2021/10/23 08:17:56;;;;;;;59.25;33.30;;;;;;;14.85;99.79;100613.59;4934117;29;20498;-80
2021/10/23 08:20:32;;;;;;;54.28;32.83;;;;;;;15.40;96.70;100618.84;4933968;29;20126;-81
2021/10/23 08:23:03;;;;;;;60.20;35.20;;;;;;;15.02;99.01;100613.41;4936002;29;20059;-79
2021/10/23 08:25:31;;;;;;;56.20;33.42;;;;;;;14.80;100.00;100621.75;4937170;29;20043;-77
2021/10/23 08:27:57;;;;;;;58.22;36.22;;;;;;;14.76;100.00;100625.53;4932942;29;20039;-77
2021/10/23 08:30:24;;;;;;;63.50;37.95;;;;;;;14.93;99.96;100621.84;4936539;29;20398;-77
2021/10/23 08:32:51;;;;;;;60.67;33.35;;;;;;;14.95;99.98;100622.59;4932076;29;20064;-78
2021/10/23 08:35:18;;;;;;;57.92;34.88;;;;;;;14.80;100.00;100632.25;4931341;29;20044;-79
2021/10/23 08:37:48;;;;;;;68.20;37.95;;;;;;;14.77;100.00;100634.22;4934271;29;20036;-76
2021/10/23 08:40:15;;;;;;;64.28;38.85;;;;;;;14.55;100.00;100634.69;4937796;29;20094;-78
2021/10/23 08:42:43;;;;;;;66.35;39.78;;;;;;;14.61;99.73;100636.94;4936388;29;20710;-79
2021/10/23 08:45:12;;;;;;;59.55;39.47;;;;;;;14.38;100.00;100638.28;4929718;29;20123;-76
2021/10/23 08:47:40;;;;;;;74.78;42.08;;;;;;;14.63;100.00;100646.41;4932317;29;20103;-77
2021/10/23 08:50:09;;;;;;;82.10;45.95;;;;;;;15.10;98.49;100642.63;4934014;29;20045;-77
2021/10/23 08:52:36;;;;;;;70.05;42.33;;;;;;;15.18;97.80;100644.81;4930475;29;20468;-77
2021/10/23 08:55:05;;;;;;;67.43;45.10;;;;;;;15.25;98.47;100643.47;4932894;29;20043;-78
2021/10/23 08:57:33;;;;;;;81.45;49.05;;;;;;;14.79;100.00;100653.34;4931681;29;20040;-78
2021/10/23 09:00:00;;;;;;;84.75;48.83;;;;;;;14.99;100.00;100644.25;4930818;29;20067;-77
2021/10/23 09:02:27;;;;;;;83.80;47.90;;;;;;;15.13;99.53;100639.00;4930344;29;20043;-78
2021/10/23 09:05:00;;;;;;;88.35;51.05;;;;;;;15.32;98.71;100641.28;4922831;29;20052;-77
2021/10/23 09:07:27;;;;;;;83.50;48.22;;;;;;;15.17;98.63;100649.19;4929273;29;20058;-77
2021/10/23 09:09:58;;;;;;;87.03;50.60;;;;;;;14.94;100.00;100650.63;4929670;29;20040;-77
2021/10/23 09:12:29;;;;;;;80.93;48.65;;;;;;;14.86;100.00;100650.25;4935601;29;20075;-77
2021/10/23 09:15:17;;;;;;;87.30;51.22;;;;;;;15.16;100.00;100655.38;4933552;29;20498;-78
2021/10/23 09:17:49;;;;;;;83.45;51.33;;;;;;;15.32;99.58;100659.66;4932608;29;20039;-77
2021/10/23 09:20:18;;;;;;;83.30;49.97;;;;;;;15.07;100.00;100658.56;4928045;29;20035;-77
2021/10/23 09:22:50;;;;;;;83.78;49.97;;;;;;;15.28;98.38;100651.13;4934032;29;20044;-78
2021/10/23 09:25:16;;;;;;;87.22;51.05;;;;;;;15.37;98.16;100660.22;4929610;29;20117;-78
2021/10/23 09:28:03;;;;;;;93.35;54.05;;;;;;;15.54;96.72;100654.72;4928496;29;20080;-78
2021/10/23 09:30:38;;;;;;;90.55;54.35;;;;;;;15.90;94.26;100648.91;4928770;29;20047;-84
2021/10/23 09:33:18;;;;;;;99.15;56.50;;;;;;;15.73;95.94;100648.34;4931971;29;20463;-86
2021/10/23 09:35:48;;;;;;;90.53;57.10;;;;;;;15.66;96.11;100646.09;4935572;29;20451;-84
2021/10/23 09:38:18;;;;;;;93.28;57.00;;;;;;;16.00;94.16;100651.78;4933702;29;20039;-83
2021/10/23 09:40:47;;;;;;;95.85;57.20;;;;;;;16.13;92.84;100649.16;4938497;29;20039;-82
2021/10/23 09:43:19;;;;;;;97.38;56.95;;;;;;;16.46;90.62;100641.66;4924779;29;20448;-83
2021/10/23 09:45:58;;;;;;;92.38;55.92;;;;;;;16.29;91.51;100648.97;4930138;29;20384;-83
2021/10/23 09:48:49;;;;;;;98.85;54.05;;;;;;;16.41;90.71;100653.44;4928672;29;20058;-82
2021/10/23 09:51:27;;;;;;;91.40;50.40;;;;;;;16.05;92.55;100647.06;4934969;29;20527;-82
2021/10/23 09:53:56;;;;;;;90.93;50.95;;;;;;;15.93;93.38;100655.78;4933337;29;20047;-82
2021/10/23 09:56:27;;;;;;;90.07;52.88;;;;;;;16.18;92.75;100652.34;4929403;29;20055;-83
2021/10/23 09:58:59;;;;;;;90.80;52.13;;;;;;;15.37;96.44;100652.34;4949039;29;20052;-82
2021/10/23 10:01:28;;;;;;;86.28;52.63;;;;;;;15.85;95.94;100655.41;4945916;29;20122;-82
2021/10/23 10:03:58;;;;;;;88.05;52.05;;;;;;;16.22;93.09;100640.66;4947349;29;20068;-81
2021/10/23 10:06:26;;;;;;;91.30;53.78;;;;;;;15.67;96.63;100650.41;4948241;29;20503;-82
2021/10/23 10:08:53;;;;;;;93.30;55.70;;;;;;;16.26;92.43;100659.72;4943167;29;20047;-82
2021/10/23 10:11:20;;;;;;;95.97;55.63;;;;;;;16.95;89.31;100653.25;4951684;29;20062;-85
2021/10/23 10:13:49;;;;;;;90.50;55.20;;;;;;;16.66;89.30;100645.53;4949437;29;20040;-81
2021/10/23 10:16:16;;;;;;;93.38;52.80;;;;;;;17.01;87.90;100647.53;4950875;29;20215;-82
2021/10/23 10:18:45;;;;;;;86.28;51.92;;;;;;;17.16;86.82;100646.47;4949385;29;20071;-81
2021/10/23 10:21:15;;;;;;;83.93;50.80;;;;;;;16.51;89.46;100641.31;4947482;29;20127;-82
2021/10/23 10:23:44;;;;;;;93.50;55.35;;;;;;;17.06;87.51;100636.69;4949171;29;20100;-80
2021/10/23 10:26:14;;;;;;;87.22;52.13;;;;;;;16.99;86.34;100639.75;4947533;29;20048;-81
2021/10/23 10:29:07;;;;;;;80.32;50.08;;;;;;;16.46;89.22;100630.28;4946101;29;20139;-81
2021/10/23 10:32:07;;;;;;;85.40;48.30;;;;;;;16.19;90.51;100632.97;4933675;29;20177;-81
2021/10/23 10:35:00;;;;;;;77.55;47.80;;;;;;;16.84;86.98;100630.28;4934293;29;20055;-81
2021/10/23 10:42:52;;;;;;;84.75;50.60;;;;;;;16.10;92.72;100618.66;4929121;29;20169;-86
2021/10/23 10:45:22;;;;;;;88.78;51.60;;;;;;;15.50;95.46;100624.38;4929766;29;20571;-80
2021/10/23 10:48:10;;;;;;;84.35;49.70;;;;;;;16.72;89.94;100620.59;4923217;29;20052;-82
2021/10/23 10:50:40;;;;;;;80.63;47.67;;;;;;;17.20;85.78;100618.91;4931344;29;20052;-79
2021/10/23 10:53:22;;;;;;;78.53;47.05;;;;;;;17.53;83.92;100606.91;4930314;29;20047;-80
2021/10/23 10:55:52;;;;;;;68.07;40.80;;;;;;;16.81;85.89;100605.97;4929040;29;20122;-80
2021/10/23 10:58:19;;;;;;;63.75;38.63;;;;;;;17.05;84.25;100600.78;4928524;29;20488;-79
2021/10/23 11:00:46;;;;;;;60.85;36.42;;;;;;;16.53;86.16;100602.59;4929822;29;20484;-80
2021/10/23 11:03:35;;;;;;;70.93;38.90;;;;;;;17.08;83.78;100598.72;4927071;29;20042;-86
2021/10/23 11:06:39;;;;;;;67.80;41.40;;;;;;;17.15;82.34;100599.13;4918818;29;20056;-85
2021/10/23 11:09:11;;;;;;;53.75;33.15;;;;;;;17.27;80.52;100595.63;4924192;29;20055;-83
2021/10/23 11:11:50;;;;;;;44.10;26.08;;;;;;;17.34;77.10;100596.88;4930252;29;20043;-82
2021/10/23 11:14:30;;;;;;;78.50;42.92;;;;;;;17.10;81.28;100603.88;4932497;29;20119;-82
2021/10/23 11:16:59;;;;;;;72.45;42.30;;;;;;;17.13;81.22;100609.78;4929335;29;20045;-81
2021/10/23 11:19:44;;;;;;;68.22;42.72;;;;;;;17.83;79.24;100602.97;4933727;29;20043;-82
2021/10/23 11:22:12;;;;;;;;;;;;;;;16.72;82.90;100600.41;4926051;29;20380;-86
2021/10/23 11:24:50;;;;;;;69.10;39.88;;;;;;;16.85;81.78;100600.38;4926414;28;20069;-86
2021/10/23 11:27:36;;;;;;;68.70;39.28;;;;;;;16.85;80.96;100599.53;4932576;29;20095;-85
2021/10/23 11:30:13;;;;;;;52.30;33.70;;;;;;;17.27;79.14;100604.38;4930378;29;20557;-84
2021/10/23 11:33:13;;;;;;;50.03;27.48;;;;;;;17.46;75.42;100605.66;4929527;29;20101;-85
2021/10/23 11:35:45;;;;;;;57.50;33.08;;;;;;;17.78;75.05;100606.78;4927713;29;20051;-82
2021/10/23 11:38:26;;;;;;;48.83;27.83;;;;;;;17.51;74.95;100600.91;4930955;29;20116;-81
2021/10/23 11:40:59;;;;;;;41.72;27.52;;;;;;;17.62;74.99;100598.31;4933518;29;20056;-89